createdAt,value
2023-04-29T00:00:11.213Z,5.37
2023-04-29T00:02:43.081Z,5.00
2023-04-29T00:05:11.660Z,4.80
2023-04-29T00:07:40.079Z,5.20
2023-04-29T00:10:10.565Z,5.00
2023-04-29T00:12:38.570Z,4.97
2023-04-29T00:15:07.398Z,4.93
2023-04-29T00:17:35.444Z,3.83
2023-04-29T00:20:04.419Z,4.93
2023-04-29T00:22:32.913Z,4.77
2023-04-29T00:25:00.893Z,5.23
2023-04-29T00:27:30.268Z,4.70
2023-04-29T00:29:58.446Z,4.40
2023-04-29T00:32:27.267Z,5.00
2023-04-29T00:34:57.369Z,4.77
2023-04-29T00:37:26.704Z,5.63
2023-04-29T00:39:54.845Z,5.43
2023-04-29T00:42:23.024Z,5.43
2023-04-29T00:44:52.379Z,5.93
2023-04-29T00:47:20.350Z,4.10
2023-04-29T00:49:48.415Z,5.00
2023-04-29T00:52:17.996Z,4.87
2023-04-29T00:54:46.684Z,5.53
2023-04-29T00:57:15.837Z,4.90
2023-04-29T00:59:45.785Z,5.90
2023-04-29T01:02:15.264Z,4.63
2023-04-29T01:04:43.638Z,4.90
2023-04-29T01:07:17.085Z,5.23
2023-04-29T01:09:56.670Z,5.27
2023-04-29T01:12:33.851Z,4.87
2023-04-29T01:15:07.849Z,6.17
2023-04-29T01:17:42.920Z,5.50
2023-04-29T01:20:13.186Z,5.33
2023-04-29T01:22:41.850Z,6.50
2023-04-29T01:25:11.625Z,5.77
2023-04-29T01:28:28.158Z,5.00
2023-04-29T01:31:04.596Z,4.93
2023-04-29T01:33:49.349Z,4.70
2023-04-29T01:36:27.761Z,5.00
2023-04-29T01:39:07.672Z,5.23
2023-04-29T01:41:44.719Z,4.30
2023-04-29T01:44:25.580Z,5.23
2023-04-29T01:46:55.204Z,5.20
2023-04-29T01:49:28.957Z,4.90
2023-04-29T01:51:57.335Z,4.90
2023-04-29T01:54:25.932Z,5.73
2023-04-29T01:56:55.596Z,6.20
2023-04-29T01:59:37.324Z,5.37
2023-04-29T02:02:34.538Z,6.00
2023-04-29T02:05:12.562Z,4.47
2023-04-29T02:07:44.736Z,5.60
2023-04-29T02:10:13.188Z,5.37
2023-04-29T02:12:44.689Z,5.10
2023-04-29T02:15:13.285Z,5.40
2023-04-29T02:17:41.532Z,4.97
2023-04-29T02:20:10.826Z,5.30
2023-04-29T02:22:39.146Z,5.23
2023-04-29T02:25:07.737Z,5.03
2023-04-29T02:27:35.734Z,4.80
2023-04-29T02:30:05.956Z,4.70
2023-04-29T02:32:34.035Z,5.17
2023-04-29T02:35:02.076Z,5.20
2023-04-29T02:37:30.414Z,5.00
2023-04-29T02:39:58.400Z,6.27
2023-04-29T02:42:26.341Z,5.63
2023-04-29T02:44:54.523Z,5.63
2023-04-29T02:47:23.828Z,4.70
2023-04-29T02:49:52.170Z,5.37
2023-04-29T02:52:20.479Z,5.20
2023-04-29T02:54:49.982Z,5.63
2023-04-29T02:57:18.541Z,4.50
2023-04-29T02:59:46.522Z,5.47
2023-04-29T03:02:14.955Z,5.67
2023-04-29T03:04:45.877Z,4.80
2023-04-29T03:07:13.853Z,5.37
2023-04-29T03:09:44.760Z,5.20
2023-04-29T03:12:13.017Z,5.17
2023-04-29T03:14:41.069Z,4.83
2023-04-29T03:17:09.072Z,5.40
2023-04-29T03:19:37.145Z,4.90
2023-04-29T03:22:08.264Z,4.90
2023-04-29T03:24:36.939Z,3.83
2023-04-29T03:27:05.437Z,4.47
2023-04-29T03:29:34.890Z,3.93
2023-04-29T03:32:03.081Z,4.67
2023-04-29T03:34:32.311Z,5.27
2023-04-29T03:37:29.622Z,4.00
2023-04-29T03:40:11.139Z,6.00
2023-04-29T03:42:39.508Z,4.03
2023-04-29T03:45:08.692Z,5.63
2023-04-29T03:47:36.973Z,4.50
2023-04-29T03:50:06.600Z,4.47
2023-04-29T03:52:37.393Z,4.97
2023-04-29T03:55:11.564Z,4.60
2023-04-29T03:57:42.106Z,6.17
2023-04-29T04:00:11.894Z,5.30
2023-04-29T04:02:46.812Z,5.60
2023-04-29T04:05:15.993Z,5.30
2023-04-29T04:07:50.874Z,5.30
2023-04-29T04:10:38.133Z,5.07
2023-04-29T04:13:20.512Z,5.43
2023-04-29T04:15:51.836Z,4.90
2023-04-29T04:18:19.883Z,5.33
2023-04-29T04:20:48.222Z,5.10
2023-04-29T04:23:17.776Z,4.50
2023-04-29T04:25:47.408Z,4.60
2023-04-29T04:28:38.848Z,5.03
2023-04-29T04:31:29.924Z,5.10
2023-04-29T04:33:59.766Z,5.57
2023-04-29T04:36:28.577Z,5.20
2023-04-29T04:38:58.148Z,5.30
2023-04-29T04:41:27.262Z,4.60
2023-04-29T04:43:55.258Z,5.50
2023-04-29T04:46:36.896Z,5.73
2023-04-29T04:49:15.698Z,5.47
2023-04-29T04:51:50.539Z,5.00
2023-04-29T04:54:19.983Z,4.90
2023-04-29T04:56:52.295Z,5.50
2023-04-29T04:59:20.997Z,6.20
2023-04-29T05:01:49.108Z,5.93
2023-04-29T05:04:17.438Z,5.20
2023-04-29T05:06:46.383Z,5.43
2023-04-29T05:09:14.426Z,6.10
2023-04-29T05:11:44.039Z,5.67
2023-04-29T05:14:15.285Z,5.20
2023-04-29T05:16:43.724Z,4.50
2023-04-29T05:19:11.782Z,5.00
2023-04-29T05:21:41.569Z,4.07
2023-04-29T05:24:12.695Z,5.70
2023-04-29T05:26:41.768Z,4.23
2023-04-29T05:29:11.462Z,4.47
2023-04-29T05:31:52.160Z,4.50
2023-04-29T05:34:20.199Z,5.30
2023-04-29T05:36:48.572Z,4.07
2023-04-29T05:39:17.589Z,4.00
2023-04-29T05:41:47.302Z,3.93
2023-04-29T05:44:21.649Z,4.27
2023-04-29T05:46:51.686Z,4.00
2023-04-29T05:49:20.421Z,4.70
2023-04-29T05:51:48.397Z,4.00
2023-04-29T05:54:16.763Z,4.90
2023-04-29T05:56:46.221Z,4.30
2023-04-29T05:59:15.030Z,4.57
2023-04-29T06:01:49.124Z,3.90
2023-04-29T06:04:17.353Z,4.43
2023-04-29T06:06:56.842Z,4.00
2023-04-29T06:09:50.183Z,4.00
2023-04-29T06:12:18.324Z,3.50
2023-04-29T06:14:48.020Z,3.60
2023-04-29T06:17:17.407Z,2.80
2023-04-29T06:19:45.377Z,2.93
2023-04-29T06:22:13.836Z,2.80
2023-04-29T06:24:49.781Z,2.73
2023-04-29T06:27:26.224Z,3.00
2023-04-29T06:29:54.730Z,3.17
2023-04-29T06:32:24.871Z,4.00
2023-04-29T06:34:53.072Z,3.07
2023-04-29T06:37:28.756Z,4.20
2023-04-29T06:40:32.159Z,4.90
2023-04-29T06:43:06.835Z,4.50
2023-04-29T06:45:55.205Z,3.60
2023-04-29T06:48:31.140Z,4.43
2023-04-29T06:50:59.980Z,4.70
2023-04-29T06:53:28.229Z,4.63
2023-04-29T06:55:56.395Z,4.40
2023-04-29T06:58:24.332Z,4.10
2023-04-29T07:00:53.120Z,4.67
2023-04-29T07:03:23.467Z,5.17
2023-04-29T07:05:53.328Z,5.50
2023-04-29T07:08:21.357Z,5.30
2023-04-29T07:10:55.754Z,5.33
2023-04-29T07:13:25.068Z,5.23
2023-04-29T07:15:53.352Z,5.17
2023-04-29T07:18:21.422Z,4.77
2023-04-29T07:20:51.141Z,4.77
2023-04-29T07:23:20.841Z,4.10
2023-04-29T07:25:48.786Z,4.90
2023-04-29T07:28:17.931Z,5.23
2023-04-29T07:30:46.126Z,4.33
2023-04-29T07:33:14.116Z,5.20
2023-04-29T07:35:44.625Z,5.17
2023-04-29T07:38:12.972Z,5.53
2023-04-29T07:40:43.161Z,5.50
2023-04-29T07:43:11.147Z,6.10
2023-04-29T07:45:39.921Z,6.13
2023-04-29T07:48:08.074Z,5.70
2023-04-29T07:50:37.273Z,5.80
2023-04-29T07:53:05.558Z,5.33
2023-04-29T07:55:33.829Z,5.17
2023-04-29T07:58:03.913Z,5.37
2023-04-29T08:00:31.950Z,4.53
2023-04-29T08:02:59.999Z,5.33
2023-04-29T08:05:28.291Z,4.67
2023-04-29T08:07:56.529Z,5.00
2023-04-29T08:10:27.340Z,3.67
2023-04-29T08:12:56.101Z,4.47
2023-04-29T08:15:25.839Z,3.50
2023-04-29T08:17:54.379Z,3.73
2023-04-29T08:20:22.480Z,4.53
2023-04-29T08:22:50.460Z,4.47
2023-04-29T08:25:18.734Z,4.47
2023-04-29T08:27:46.721Z,5.73
2023-04-29T08:30:14.947Z,5.90
2023-04-29T08:32:44.288Z,5.20
2023-04-29T08:35:12.556Z,6.10
2023-04-29T08:37:40.582Z,6.77
2023-04-29T08:40:10.382Z,6.10
2023-04-29T08:42:38.911Z,5.57
2023-04-29T08:45:08.449Z,6.60
2023-04-29T08:47:37.795Z,6.47
2023-04-29T08:50:08.830Z,7.27
2023-04-29T08:52:37.091Z,6.13
2023-04-29T08:55:05.966Z,6.47
2023-04-29T08:57:39.587Z,7.17
2023-04-29T09:00:11.525Z,5.77
2023-04-29T09:02:46.193Z,6.23
2023-04-29T09:05:16.021Z,6.73
2023-04-29T09:07:46.064Z,6.93
2023-04-29T09:10:14.995Z,5.97
2023-04-29T09:12:43.020Z,6.43
2023-04-29T09:15:11.797Z,7.20
2023-04-29T09:17:44.381Z,4.73
2023-04-29T09:20:30.450Z,6.17
2023-04-29T09:23:01.205Z,4.03
2023-04-29T09:25:31.252Z,3.93
2023-04-29T09:27:59.495Z,3.93
2023-04-29T09:30:27.600Z,4.90
2023-04-29T09:33:07.581Z,5.00
2023-04-29T09:35:37.473Z,3.87
2023-04-29T09:38:16.041Z,3.87
2023-04-29T09:40:57.317Z,4.30
2023-04-29T09:43:27.351Z,3.67
2023-04-29T09:45:55.682Z,3.87
2023-04-29T09:48:23.722Z,3.27
2023-04-29T09:51:03.095Z,3.77
2023-04-29T09:53:32.518Z,3.60
2023-04-29T09:56:01.856Z,3.13
2023-04-29T09:58:31.531Z,3.30
2023-04-29T10:01:02.019Z,7.13
2023-04-29T10:03:33.774Z,7.33
2023-04-29T10:06:04.525Z,5.23
2023-04-29T10:08:33.690Z,3.63
2023-04-29T10:11:06.056Z,3.33
2023-04-29T10:13:38.339Z,3.30
2023-04-29T10:16:16.778Z,3.83
2023-04-29T10:18:50.248Z,3.60
2023-04-29T10:21:22.091Z,3.90
2023-04-29T10:23:50.946Z,3.70
2023-04-29T10:26:21.032Z,4.27
2023-04-29T10:28:52.511Z,3.87
2023-04-29T10:31:23.195Z,3.03
2023-04-29T10:33:55.235Z,3.50
2023-04-29T10:36:26.122Z,3.53
2023-04-29T10:38:58.037Z,3.63
2023-04-29T10:41:28.920Z,3.70
2023-04-29T10:43:57.447Z,4.40
2023-04-29T10:46:27.389Z,3.70
2023-04-29T10:49:01.204Z,4.03
2023-04-29T10:51:34.835Z,3.80
2023-04-29T10:54:08.232Z,4.57
2023-04-29T10:56:45.008Z,3.50
2023-04-29T10:59:14.504Z,4.30
2023-04-29T11:01:45.389Z,4.57
2023-04-29T11:04:14.143Z,7.17
2023-04-29T11:06:46.326Z,3.03
2023-04-29T11:09:16.866Z,5.37
2023-04-29T11:12:00.516Z,2.90
2023-04-29T11:14:31.021Z,3.97
2023-04-29T11:17:00.724Z,21.60
2023-04-29T11:19:33.566Z,8.17
2023-04-29T11:22:14.644Z,6.40
2023-04-29T11:24:53.752Z,3.50
2023-04-29T11:27:25.509Z,3.17
2023-04-29T11:29:58.454Z,2.30
2023-04-29T11:32:27.397Z,2.70
2023-04-29T11:34:55.905Z,5.27
2023-04-29T11:37:27.041Z,5.53
2023-04-29T11:40:01.024Z,7.03
2023-04-29T11:42:29.581Z,6.63
2023-04-29T11:44:59.492Z,6.60
2023-04-29T11:47:29.627Z,5.80
2023-04-29T11:50:05.563Z,6.30
2023-04-29T11:52:37.267Z,7.10
2023-04-29T11:55:06.059Z,5.60
2023-04-29T11:57:34.157Z,6.17
2023-04-29T12:00:02.630Z,7.53
2023-04-29T12:02:36.172Z,6.77
2023-04-29T12:05:08.564Z,6.63
2023-04-29T12:07:38.262Z,7.27
2023-04-29T12:10:10.895Z,8.57
2023-04-29T12:12:40.943Z,8.13
2023-04-29T12:15:10.893Z,8.00
2023-04-29T12:17:39.816Z,8.93
2023-04-29T12:20:09.424Z,8.50
2023-04-29T12:22:38.885Z,10.20
2023-04-29T12:25:08.629Z,10.87
2023-04-29T12:27:37.279Z,12.87
2023-04-29T12:30:09.602Z,11.93
2023-04-29T12:32:38.171Z,11.83
2023-04-29T12:35:07.413Z,12.80
2023-04-29T12:37:35.642Z,12.53
2023-04-29T12:40:05.823Z,13.83
2023-04-29T12:42:34.660Z,12.83
2023-04-29T12:45:02.776Z,12.70
2023-04-29T12:47:34.751Z,12.83
2023-04-29T12:50:03.091Z,13.63
2023-04-29T12:52:31.312Z,13.93
2023-04-29T12:54:59.464Z,13.63
2023-04-29T12:57:29.635Z,12.80
2023-04-29T12:59:57.671Z,13.30
2023-04-29T13:04:54.689Z,13.77
2023-04-29T13:07:23.044Z,14.40
2023-04-29T13:09:51.162Z,14.60
2023-04-29T13:12:19.154Z,13.70
2023-04-29T13:14:48.654Z,15.40
2023-04-29T13:17:16.787Z,13.60
2023-04-29T13:19:51.541Z,13.17
2023-04-29T13:22:20.026Z,12.07
2023-04-29T13:24:48.028Z,12.60
2023-04-29T13:27:16.083Z,12.10
2023-04-29T13:29:44.329Z,12.33
2023-04-29T13:32:13.904Z,12.03
2023-04-29T13:34:43.428Z,10.53
2023-04-29T13:37:11.824Z,11.30
2023-04-29T13:39:40.389Z,11.17
2023-04-29T13:42:09.084Z,9.40
2023-04-29T13:44:51.027Z,9.20
2023-04-29T13:47:30.418Z,9.17
2023-04-29T13:50:39.744Z,10.37
2023-04-29T13:53:18.707Z,8.20
2023-04-29T14:01:05.962Z,11.47
2023-04-29T14:03:29.356Z,8.43
2023-04-29T14:05:58.449Z,9.97
2023-04-29T14:08:26.635Z,8.90
2023-04-29T14:10:54.622Z,8.30
2023-04-29T14:13:22.715Z,8.60
2023-04-29T14:15:51.405Z,7.90
2023-04-29T14:18:19.562Z,8.40
2023-04-29T14:20:49.322Z,7.50
2023-04-29T14:23:17.522Z,7.80
2023-04-29T14:25:45.789Z,7.27
2023-04-29T14:28:14.595Z,8.27
2023-04-29T14:30:44.970Z,7.53
2023-04-29T14:33:14.939Z,7.13
2023-04-29T14:35:43.294Z,7.57
2023-04-29T14:38:12.620Z,7.77
2023-04-29T14:40:40.741Z,7.13
2023-04-29T14:43:09.024Z,7.13
2023-04-29T14:45:37.692Z,8.07
2023-04-29T14:48:05.877Z,8.13
2023-04-29T14:50:35.403Z,8.17
2023-04-29T14:53:04.389Z,9.17
2023-04-29T14:55:33.710Z,8.20
2023-04-29T14:58:05.079Z,7.60
2023-04-29T15:00:33.655Z,10.40
2023-04-29T15:03:03.753Z,8.47
2023-04-29T15:05:32.259Z,7.10
2023-04-29T15:08:01.669Z,7.43
2023-04-29T15:10:30.139Z,7.37
2023-04-29T15:12:59.635Z,7.77
2023-04-29T15:15:28.944Z,7.20
2023-04-29T15:17:57.198Z,7.20
2023-04-29T15:20:25.540Z,6.97
2023-04-29T15:22:53.635Z,7.23
2023-04-29T15:25:24.148Z,7.00
2023-04-29T15:27:53.741Z,7.77
2023-04-29T15:30:23.288Z,7.90
2023-04-29T15:32:51.424Z,7.50
2023-04-29T15:35:19.485Z,8.77
2023-04-29T15:37:47.500Z,7.97
2023-04-29T15:40:16.525Z,7.33
2023-04-29T15:42:44.656Z,8.03
2023-04-29T15:45:13.652Z,8.40
2023-04-29T15:47:42.958Z,8.10
2023-04-29T15:50:11.864Z,8.87
2023-04-29T15:52:41.164Z,8.70
2023-04-29T15:55:09.763Z,8.20
2023-04-29T15:57:41.274Z,7.70
2023-04-29T16:00:11.313Z,7.70
2023-04-29T16:02:39.881Z,9.27
2023-04-29T16:05:09.928Z,7.30
2023-04-29T16:07:37.995Z,7.60
2023-04-29T16:10:06.604Z,7.73
2023-04-29T16:12:34.580Z,7.87
2023-04-29T16:15:02.737Z,9.03
2023-04-29T16:17:32.425Z,8.77
2023-04-29T16:20:00.548Z,10.80
2023-04-29T16:22:35.955Z,10.43
2023-04-29T16:25:06.944Z,10.27
2023-04-29T16:27:34.939Z,9.90
2023-04-29T16:30:04.119Z,9.33
2023-04-29T16:32:32.882Z,10.97
2023-04-29T16:35:01.916Z,11.10
2023-04-29T16:37:31.580Z,11.80
2023-04-29T16:40:00.367Z,12.30
2023-04-29T16:42:28.381Z,11.37
2023-04-29T16:44:56.395Z,13.37
2023-04-29T16:47:24.945Z,12.80
2023-04-29T16:49:53.398Z,12.27
2023-04-29T16:52:22.320Z,11.30
2023-04-29T16:54:51.642Z,12.20
2023-04-29T16:57:21.345Z,11.03
2023-04-29T16:59:49.294Z,11.67
2023-04-29T17:02:17.407Z,10.30
2023-04-29T17:04:45.418Z,10.70
2023-04-29T17:07:14.361Z,9.90
2023-04-29T17:09:42.375Z,10.37
2023-04-29T17:12:12.226Z,11.20
2023-04-29T17:14:40.835Z,9.50
2023-04-29T17:17:09.100Z,9.70
2023-04-29T17:19:37.112Z,9.97
2023-04-29T17:22:05.091Z,9.70
2023-04-29T17:24:34.462Z,8.80
2023-04-29T17:27:02.653Z,7.87
2023-04-29T17:29:32.069Z,8.77
2023-04-29T17:32:03.388Z,7.80
2023-04-29T17:34:34.021Z,8.37
2023-04-29T17:37:02.062Z,8.60
2023-04-29T17:39:30.383Z,8.60
2023-04-29T17:41:58.591Z,9.00
2023-04-29T17:44:27.178Z,6.97
2023-04-29T17:46:56.545Z,8.13
2023-04-29T17:49:25.155Z,10.47
2023-04-29T17:51:53.375Z,11.90
2023-04-29T17:54:21.412Z,14.30
2023-04-29T17:56:49.579Z,11.90
2023-04-29T17:59:17.633Z,11.23
2023-04-29T18:01:46.786Z,8.90
2023-04-29T18:04:16.385Z,9.20
2023-04-29T18:06:46.044Z,8.60
2023-04-29T18:09:14.471Z,10.00
2023-04-29T18:11:42.436Z,7.70
2023-04-29T18:14:10.403Z,9.07
2023-04-29T18:16:39.106Z,9.53
2023-04-29T18:19:07.108Z,10.23
2023-04-29T18:21:36.470Z,10.07
2023-04-29T18:24:05.153Z,9.40
2023-04-29T18:26:33.157Z,9.10
2023-04-29T18:29:01.080Z,8.57
2023-04-29T18:31:29.163Z,9.13
2023-04-29T18:33:57.150Z,9.50
2023-04-29T18:36:25.250Z,10.10
2023-04-29T18:38:54.542Z,9.27
2023-04-29T18:41:22.457Z,7.57
2023-04-29T18:43:50.342Z,8.83
2023-04-29T18:46:18.385Z,8.53
2023-04-29T18:48:46.345Z,9.67
2023-04-29T18:51:14.437Z,9.53
2023-04-29T18:53:42.516Z,10.40
2023-04-29T18:56:11.964Z,9.03
2023-04-29T18:58:39.947Z,10.00
2023-04-29T19:01:08.004Z,8.63
2023-04-29T19:03:36.648Z,9.77
2023-04-29T19:06:05.198Z,9.77
2023-04-29T19:08:33.184Z,10.87
2023-04-29T19:11:01.475Z,10.30
2023-04-29T19:13:30.917Z,15.80
2023-04-29T19:15:59.404Z,13.63
2023-04-29T19:18:28.520Z,14.30
2023-04-29T19:20:57.238Z,9.80
2023-04-29T19:23:25.387Z,14.20
2023-04-29T19:25:53.406Z,10.53
2023-04-29T19:28:22.534Z,9.70
2023-04-29T19:30:53.137Z,9.23
2023-04-29T19:33:21.139Z,10.77
2023-04-29T19:35:49.145Z,10.20
2023-04-29T19:38:17.223Z,8.70
2023-04-29T19:40:45.243Z,10.23
2023-04-29T19:43:13.826Z,9.70
2023-04-29T19:45:41.980Z,9.40
2023-04-29T19:48:11.329Z,10.70
2023-04-29T19:50:39.930Z,9.80
2023-04-29T19:53:08.120Z,10.00
2023-04-29T19:55:36.337Z,11.77
2023-04-29T19:58:04.309Z,10.50
2023-04-29T20:00:32.449Z,9.90
2023-04-29T20:03:02.597Z,8.37
2023-04-29T20:05:32.074Z,9.57
2023-04-29T20:08:00.046Z,10.90
2023-04-29T20:10:29.902Z,11.20
2023-04-29T20:12:58.218Z,10.47
2023-04-29T20:15:26.240Z,8.90
2023-04-29T20:17:54.667Z,8.93
2023-04-29T20:20:24.243Z,9.50
2023-04-29T20:22:57.839Z,9.20
2023-04-29T20:25:27.052Z,8.63
2023-04-29T20:27:55.078Z,8.67
2023-04-29T20:30:23.112Z,8.63
2023-04-29T20:32:51.568Z,8.37
2023-04-29T20:35:20.797Z,7.73
2023-04-29T20:37:49.068Z,8.57
2023-04-29T20:40:18.582Z,7.70
2023-04-29T20:42:47.091Z,7.47
2023-04-29T20:45:15.402Z,7.77
2023-04-29T20:47:44.034Z,8.10
2023-04-29T20:50:12.610Z,7.40
2023-04-29T20:52:40.593Z,9.20
2023-04-29T20:55:09.499Z,8.80
2023-04-29T20:57:39.675Z,8.73
2023-04-29T21:00:09.656Z,8.43
2023-04-29T21:02:37.930Z,8.37
2023-04-29T21:05:10.047Z,7.93
2023-04-29T21:07:38.265Z,7.67
2023-04-29T21:10:06.761Z,9.00
2023-04-29T21:12:34.841Z,9.43
2023-04-29T21:15:04.424Z,8.20
2023-04-29T21:17:32.677Z,7.87
2023-04-29T21:20:00.951Z,7.10
2023-04-29T21:22:28.940Z,8.77
2023-04-29T21:24:58.170Z,8.87
2023-04-29T21:27:26.150Z,8.20
2023-04-29T21:29:54.631Z,9.37
2023-04-29T21:32:24.492Z,8.40
2023-04-29T21:34:53.654Z,9.97
2023-04-29T21:37:21.618Z,8.47
2023-04-29T21:39:49.617Z,9.13
2023-04-29T21:42:21.237Z,8.40
2023-04-29T21:44:49.447Z,8.50
2023-04-29T21:47:17.612Z,7.43
2023-04-29T21:49:47.040Z,7.30
2023-04-29T21:52:15.093Z,8.00
2023-04-29T21:54:43.910Z,8.40
2023-04-29T21:57:12.206Z,8.27
2023-04-29T21:59:40.190Z,8.03
2023-04-29T22:02:14.886Z,8.57
2023-04-29T22:04:42.932Z,9.07
2023-04-29T22:07:12.330Z,8.20
2023-04-29T22:09:40.274Z,7.67
2023-04-29T22:12:08.281Z,7.20
2023-04-29T22:14:36.238Z,8.30
2023-04-29T22:17:04.386Z,7.67
2023-04-29T22:19:32.326Z,7.87
2023-04-29T22:22:00.996Z,10.53
2023-04-29T22:24:30.609Z,8.97
2023-04-29T22:26:58.641Z,8.87
2023-04-29T22:29:26.611Z,9.87
2023-04-29T22:31:54.950Z,9.70
2023-04-29T22:34:22.933Z,8.63
2023-04-29T22:36:50.897Z,9.50
2023-04-29T22:39:18.898Z,9.07
2023-04-29T22:41:48.264Z,8.70
2023-04-29T22:44:16.331Z,9.30
2023-04-29T22:46:44.284Z,8.87
2023-04-29T22:49:12.344Z,9.97
2023-04-29T22:51:41.419Z,10.30
2023-04-29T22:54:11.415Z,8.57
2023-04-29T22:56:39.778Z,9.37
2023-04-29T22:59:09.207Z,8.90
2023-04-29T23:01:37.485Z,9.60
2023-04-29T23:04:07.719Z,10.47
2023-04-29T23:06:35.909Z,8.90
2023-04-29T23:09:04.429Z,9.80
2023-04-29T23:11:32.584Z,10.07
2023-04-29T23:14:00.687Z,9.07
2023-04-29T23:16:30.082Z,9.33
2023-04-29T23:18:58.100Z,8.90
2023-04-29T23:21:27.087Z,9.87
2023-04-29T23:23:55.703Z,8.50
2023-04-29T23:26:24.273Z,9.80
2023-04-29T23:28:52.305Z,9.10
2023-04-29T23:31:20.462Z,8.20
2023-04-29T23:33:49.869Z,9.20
2023-04-29T23:36:18.097Z,8.80
2023-04-29T23:38:46.085Z,7.60
2023-04-29T23:41:14.123Z,9.00
2023-04-29T23:43:42.097Z,8.80
2023-04-29T23:46:10.245Z,8.90
2023-04-29T23:48:38.282Z,8.70
2023-04-29T23:51:07.776Z,8.33
2023-04-29T23:53:35.901Z,8.13
2023-04-29T23:56:03.992Z,8.13
2023-04-29T23:58:32.074Z,8.77
